Terminal Aerodrome Forecast
Issued by NWS

Home | Current Version | Previous Version | Text Only | Print | Product List | Glossary On
Versions: 1 2 3 4 5 6 7 8 9 10 11 12 13 14 15 16 17 18 19 20
000
FTUS46 KMFR 261736
TAFOTH
TAF
KOTH 261736Z 2618/2718 16008KT P6SM SCT200
     FM262000 19010G17KT P6SM BKN150
     FM270200 18014G25KT P6SM SCT020 OVC100
     FM270700 19013G22KT P6SM -RA BKN020 OVC040
     FM271300 19011G20KT 5SM -RA BR OVC012=

USA.gov is the U.S. government's official web portal to all federal, state and local government web resources and services.